Flight Track Log - Related Links

Times and Time Zones

All times are in EDT time to prevent confusion due to time zone crossing. See the SWA580 flight status page for this flight to view local times or setup timezone preferences in your user account.

Time Position Orientation Groundspeed Altitude Reporting Facility
EDT Latitude Longitude Course Direction KTS MPH feet Rate Location/Type
Tue 04:00:03 PM 36.1000 -86.7333 270° West 212 244 2,700  Level Nashville TRACON
Tue 04:01:03 PM 36.1167 -86.8167 284° West 292 336 4,100 1,636 Climbing Nashville TRACON
Tue 04:02:04 PM 36.1500 -86.9000 296° West 281 323 6,000 2,905 Climbing Nashville TRACON
Tue 04:03:09 PM 36.1861 -87.0011 294° West 311 358 10,200 3,504 Climbing Memphis Center
Tue 04:04:09 PM 36.2308 -87.1150 296° West 317 365 13,300 3,200 Climbing Memphis Center
Tue 04:05:09 PM 36.2692 -87.2269 293° West 349 402 16,600 3,350 Climbing Memphis Center
Tue 04:06:09 PM 36.2933 -87.3572 283° West 372 428 20,000 3,150 Climbing Memphis Center
Tue 04:07:09 PM 36.3150 -87.4878 282° West 393 452 22,900 1,500 Climbing Memphis Center
Tue 04:08:09 PM 36.3636 -87.6097 296° West 393 452 23,000 1,150 Climbing Memphis Center
Tue 04:09:09 PM 36.4183 -87.7317 299° West 399 459 25,200 2,500 Climbing Memphis Center
Tue 04:10:09 PM 36.4708 -87.8514 299° West 399 459 28,000 1,400 Climbing Memphis Center
Tue 04:11:09 PM 36.5211 -87.9581 300° West 399 459 28,000  Level Memphis Center
Tue 04:12:09 PM 36.5733 -88.0781 298° West 393 452 28,000  Level Memphis Center
Tue 04:13:09 PM 36.6319 -88.2056 300° West 387 445 28,000  Level Memphis Center
Tue 04:14:09 PM 36.6839 -88.3206 299° West 387 445 28,000  Level Memphis Center
Tue 04:15:09 PM 36.7400 -88.4486 299° West 394 453 28,000 -350 Level Memphis Center
Tue 04:16:09 PM 36.7961 -88.5717 300° West 405 466 27,300 -950 Descending Memphis Center
Tue 04:17:09 PM 36.8456 -88.6872 298° West 400 460 26,100 -1,100 Descending Memphis Center
Tue 04:18:09 PM 36.8928 -88.8006 298° West 381 438 25,100 -1,000 Descending Memphis Center
Tue 04:19:09 PM 36.9422 -88.9058 300° West 362 417 24,100 -550 Descending Memphis Center
Tue 04:20:09 PM 36.9872 -89.0142 298° West 357 411 24,000 -50 Descending Memphis Center
Tue 04:21:09 PM 37.0339 -89.1200 299° West 351 404 24,000  Level Memphis Center
Tue 04:23:14 PM 37.1214 -89.3258 298° West 348 400 24,000  Level Kansas City Center
Tue 04:24:16 PM 37.1678 -89.4325 299° West 350 403 24,000  Level Kansas City Center
Tue 04:25:18 PM 37.2233 -89.5614 298° West 352 405 24,000  Level Kansas City Center
Tue 04:26:20 PM 37.3119 -89.6197 332° Northwest 362 417 24,000  Level Kansas City Center
Tue 04:27:22 PM 37.4033 -89.6694 337° Northwest 358 412 24,000  Level Kansas City Center
Tue 04:28:24 PM 37.4950 -89.7186 337° Northwest 357 411 24,000  Level Kansas City Center
Tue 04:29:26 PM 37.5814 -89.7678 336° Northwest 356 410 24,000  Level Kansas City Center
Tue 04:30:28 PM 37.6783 -89.8189 337° Northwest 380 437 24,000  Level Kansas City Center
Tue 04:31:30 PM 37.8000 -89.8867 336° Northwest 398 458 24,000 -774 Level Kansas City Center
Tue 04:32:32 PM 37.9075 -89.9433 337° Northwest 396 456 22,400 -1,790 Descending Kansas City Center
Tue 04:33:34 PM 38.0031 -89.9972 336° Northwest 380 437 20,300 -2,081 Descending Kansas City Center
Tue 04:34:36 PM 38.1031 -90.0539 336° Northwest 368 423 18,100 -2,081 Descending Kansas City Center
Tue 04:35:38 PM 38.1925 -90.1050 336° Northwest 355 409 16,000 -1,920 Descending Kansas City Center
Tue 04:36:41 PM 38.2806 -90.1533 337° Northwest 345 397 14,100 -1,920 Descending Kansas City Center
Tue 04:37:43 PM 38.3736 -90.2053 336° Northwest 340 391 12,000 -1,790 Descending Kansas City Center
Tue 04:38:45 PM 38.4536 -90.2514 336° Northwest 335 386 10,400 -1,210 Descending Kansas City Center
Tue 04:39:47 PM 38.5378 -90.2992 336° Northwest 332 382 9,500 -1,065 Descending Kansas City Center
Tue 04:40:49 PM 38.6181 -90.3444 336° Northwest 322 371 8,200 -1,065 Descending Kansas City Center
Tue 04:41:51 PM 38.6722 -90.4147 315° West 282 325 7,300 -1,016 Descending Kansas City Center
Tue 04:42:53 PM 38.7125 -90.4958 302° West 265 305 6,100 -1,210 Descending Kansas City Center
Tue 04:43:55 PM 38.7503 -90.5725 302° West 256 295 4,800 -1,065 Descending Kansas City Center
Tue 04:44:57 PM 38.7922 -90.6419 308° West 258 297 3,900 -823 Descending Kansas City Center
Tue 04:45:59 PM 38.8456 -90.5825 41° Northeast 244 281 3,100 -532 Descending Kansas City Center
Tue 04:47:01 PM 38.8206 -90.5144 115° Southeast 229 264 2,800 -629 Descending Kansas City Center
Tue 04:48:03 PM 38.7900 -90.4531 123° Southeast 214 246 1,800 -823 Descending Kansas City Center
Tue 04:49:05 PM 38.7692 -90.4092 121° Southeast 173 199 1,100 -629 Descending Kansas City Center
Tue 04:50:07 PM 38.7464 -90.3633 122° Southeast 152 175 500 -581 Descending Kansas City Center

Login

Don't have an account? Register now (free) for customized features, flight alerts, and more!